Time;durP1;ratioP1;P1;durP2;ratioP2;P2;SDS_P1;SDS_P2;PMS_P1;PMS_P2;Temp;Humidity;BMP_temperature;BMP_pressure;BME280_temperature;BME280_humidity;BME280_pressure;Samples;Min_cycle;Max_cycle;Signal;HPM_P1;HPM_P2
2021/09/04 00:01:58;;;;;;;;;20.00;16.75;;;;;23.87;48.56;101014.53;5077112;28;45597;-43
2021/09/04 00:04:24;;;;;;;;;18.50;18.50;;;;;23.86;48.87;101018.97;5076249;28;46184;-44
2021/09/04 00:06:49;;;;;;;;;18.25;18.25;;;;;23.85;49.03;101019.09;5058143;28;45446;-44
2021/09/04 00:09:14;;;;;;;;;16.50;16.50;;;;;23.85;48.60;101022.56;5076572;28;45351;-45
2021/09/04 00:11:40;;;;;;;;;22.25;19.75;;;;;23.84;48.72;101014.75;5079868;28;45307;-44
2021/09/04 00:14:05;;;;;;;;;21.75;19.50;;;;;23.86;48.74;101023.44;5079735;28;45501;-46
2021/09/04 00:16:30;;;;;;;;;18.75;17.75;;;;;23.83;48.92;101019.19;5080201;28;45399;-43
2021/09/04 00:18:56;;;;;;;;;19.00;19.00;;;;;23.84;48.81;101018.22;5080126;28;45427;-44
2021/09/04 00:21:21;;;;;;;;;18.00;17.25;;;;;23.83;48.78;101019.19;5080132;27;45217;-46
2021/09/04 00:23:46;;;;;;;;;20.25;18.50;;;;;23.82;48.73;101006.06;5079501;28;46366;-43
2021/09/04 00:26:12;;;;;;;;;19.50;17.00;;;;;23.83;48.46;101018.34;5079640;27;45419;-44
2021/09/04 00:28:37;;;;;;;;;19.75;17.00;;;;;23.84;49.06;101015.56;5079799;27;45574;-44
2021/09/04 00:31:02;;;;;;;;;19.50;17.25;;;;;23.84;48.87;101017.41;5080056;27;45276;-45
2021/09/04 00:33:28;;;;;;;;;18.00;17.00;;;;;23.83;48.39;101016.53;5079517;28;46140;-45
2021/09/04 00:35:53;;;;;;;;;24.00;20.50;;;;;23.83;48.80;101007.75;5079429;28;45150;-44
2021/09/04 00:38:19;;;;;;;;;16.25;16.25;;;;;23.82;48.72;101006.88;5079649;28;45224;-45
2021/09/04 00:40:44;;;;;;;;;16.25;15.50;;;;;23.83;48.60;101005.09;5079842;27;45260;-44
2021/09/04 00:43:10;;;;;;;;;19.00;17.25;;;;;23.79;48.62;101001.81;5079493;28;46698;-43
2021/09/04 00:45:35;;;;;;;;;23.00;18.00;;;;;23.81;48.89;101005.22;5079385;28;45284;-44
2021/09/04 00:48:04;;;;;;;;;20.25;17.75;;;;;23.82;49.00;101006.88;5079864;27;45338;-44
2021/09/04 00:50:31;;;;;;;;;17.25;17.25;;;;;23.82;48.82;101011.34;5079509;27;45515;-44
2021/09/04 00:52:57;;;;;;;;;21.75;17.00;;;;;23.81;48.61;101009.66;5079246;27;46523;-48
2021/09/04 00:55:24;;;;;;;;;18.00;17.00;;;;;23.80;49.00;101007.94;5079132;27;45945;-44
2021/09/04 00:57:50;;;;;;;;;22.25;17.50;;;;;23.81;48.75;101010.50;5079348;27;45287;-48
2021/09/04 01:00:16;;;;;;;;;22.00;18.50;;;;;23.82;49.00;101006.06;5061073;28;45617;-45
2021/09/04 01:02:42;;;;;;;;;20.50;18.00;;;;;23.80;48.97;101006.16;5079085;28;46189;-44
2021/09/04 01:05:07;;;;;;;;;19.50;19.50;;;;;23.80;48.50;101007.94;5079072;28;45430;-47
2021/09/04 01:07:34;;;;;;;;;21.50;19.00;;;;;23.80;48.75;101002.66;5079563;28;45400;-44
2021/09/04 01:10:01;;;;;;;;;25.25;20.00;;;;;23.80;49.00;101000.00;5079221;27;45295;-45
2021/09/04 01:12:27;;;;;;;;;17.50;17.50;;;;;23.78;48.70;101000.97;5078839;27;45388;-44
2021/09/04 01:14:53;;;;;;;;;23.50;19.25;;;;;23.77;48.78;100999.25;5078941;28;45321;-43
2021/09/04 01:17:18;;;;;;;;;15.75;15.50;;;;;23.78;49.27;101000.97;5079123;28;45770;-43
2021/09/04 01:19:43;;;;;;;;;17.25;17.25;;;;;23.80;48.69;100992.06;5079063;28;45200;-44
2021/09/04 01:22:09;;;;;;;;;18.50;18.50;;;;;23.78;49.09;101003.59;5078280;28;45212;-43
2021/09/04 01:24:34;;;;;;;;;25.00;20.50;;;;;23.79;49.24;101001.81;5079078;28;45436;-43
2021/09/04 01:27:00;;;;;;;;;18.00;18.00;;;;;23.79;48.71;100999.19;5078891;27;45232;-43
2021/09/04 01:29:25;;;;;;;;;22.50;21.00;;;;;23.78;48.82;100998.31;5078955;27;45323;-44
2021/09/04 01:31:51;;;;;;;;;23.50;20.00;;;;;23.80;49.08;100992.94;5078470;28;45322;-44
2021/09/04 01:34:17;;;;;;;;;21.50;20.50;;;;;23.79;48.91;100996.53;5078587;27;45355;-47
2021/09/04 01:36:42;;;;;;;;;21.50;20.25;;;;;23.77;48.62;100991.31;5078942;28;45830;-52
2021/09/04 01:39:09;;;;;;;;;20.00;19.75;;;;;23.77;48.97;100996.63;5078890;27;45986;-44
2021/09/04 01:41:37;;;;;;;;;21.25;21.25;;;;;23.78;48.91;100995.66;5078848;28;45403;-50
2021/09/04 01:44:03;;;;;;;;;20.75;20.00;;;;;23.77;48.94;100993.97;5078469;28;45897;-53
2021/09/04 01:46:30;;;;;;;;;23.25;22.50;;;;;23.77;48.70;100993.97;5078786;28;45466;-51
2021/09/04 01:48:55;;;;;;;;;22.50;20.00;;;;;23.76;48.95;100992.25;5078878;28;45403;-50
2021/09/04 01:51:21;;;;;;;;;23.00;19.75;;;;;23.76;48.89;100991.44;5078216;28;46558;-52
2021/09/04 01:53:46;;;;;;;;;20.00;20.00;;;;;23.76;49.02;101002.84;5078153;27;45542;-51
2021/09/04 01:56:12;;;;;;;;;23.25;22.00;;;;;23.76;49.04;101002.03;5078440;27;45266;-52
2021/09/04 01:58:37;;;;;;;;;19.50;19.50;;;;;23.75;49.33;100993.25;5078784;28;45311;-48
2021/09/04 02:01:04;;;;;;;;;19.00;18.00;;;;;23.76;49.41;100997.56;5078199;27;45429;-49
2021/09/04 02:03:29;;;;;;;;;21.75;21.00;;;;;23.75;49.10;100995.91;5078129;28;45837;-46
2021/09/04 02:05:55;;;;;;;;;23.00;20.75;;;;;23.74;48.91;100991.53;5078245;28;45371;-50
2021/09/04 02:08:20;;;;;;;;;17.75;16.50;;;;;23.75;48.89;100984.44;5078288;27;45404;-47
2021/09/04 02:10:45;;;;;;;;;23.75;20.50;;;;;23.75;49.20;100987.09;5077948;28;45304;-48
2021/09/04 02:13:11;;;;;;;;;17.75;17.00;;;;;23.76;49.33;100991.44;5078240;28;45400;-49
2021/09/04 02:15:36;;;;;;;;;23.50;20.50;;;;;23.74;49.50;100994.19;5078449;27;45269;-45
2021/09/04 02:18:02;;;;;;;;;19.75;17.50;;;;;23.76;48.91;100989.63;5078308;28;45211;-44
2021/09/04 02:20:27;;;;;;;;;25.00;21.00;;;;;23.75;49.39;100984.44;5077916;28;46149;-44
2021/09/04 02:22:53;;;;;;;;;21.25;21.00;;;;;23.72;49.33;100979.34;5077756;28;45244;-44
2021/09/04 02:25:18;;;;;;;;;21.75;20.75;;;;;23.73;49.30;100976.63;5077952;28;45237;-44
2021/09/04 02:27:44;;;;;;;;;19.25;19.25;;;;;23.73;49.10;100975.75;5078230;28;45336;-43
2021/09/04 02:30:10;;;;;;;;;24.75;22.00;;;;;23.73;49.24;100984.56;5077953;28;45558;-46
2021/09/04 02:32:36;;;;;;;;;21.75;17.00;;;;;23.74;49.20;100980.97;5077003;27;45316;-44
2021/09/04 02:35:02;;;;;;;;;21.25;18.00;;;;;23.74;49.07;100977.44;5077869;28;45378;-43
2021/09/04 02:37:27;;;;;;;;;21.50;20.50;;;;;23.73;49.01;100981.91;5077816;27;45655;-44
2021/09/04 02:39:53;;;;;;;;;24.75;18.75;;;;;23.73;49.36;100978.41;5077461;28;46522;-45
2021/09/04 02:42:18;;;;;;;;;23.00;21.00;;;;;23.73;49.05;100978.41;5077596;28;45431;-44
2021/09/04 02:44:44;;;;;;;;;20.25;16.75;;;;;23.71;49.33;100981.16;5077543;28;45330;-44
2021/09/04 02:47:09;;;;;;;;;19.25;19.00;;;;;23.73;48.87;100981.91;5078153;28;45319;-45
2021/09/04 02:49:35;;;;;;;;;19.25;18.00;;;;;23.72;49.39;100980.22;5077335;27;45561;-45
2021/09/04 02:52:00;;;;;;;;;21.00;19.00;;;;;23.72;49.07;100988.16;5077200;27;45330;-45
2021/09/04 02:54:26;;;;;;;;;18.25;18.00;;;;;23.72;49.11;100982.00;5077554;27;45319;-43
2021/09/04 02:56:51;;;;;;;;;22.00;20.25;;;;;23.72;49.04;100982.84;5077748;27;45645;-45
2021/09/04 02:59:16;;;;;;;;;21.25;19.50;;;;;23.72;49.27;100982.84;5077045;28;45685;-46
2021/09/04 03:01:42;;;;;;;;;20.75;17.50;;;;;23.72;49.14;100982.00;5077284;27;45252;-48
2021/09/04 03:04:08;;;;;;;;;18.75;18.00;;;;;23.71;49.33;100983.81;5077623;28;45236;-44
2021/09/04 03:06:33;;;;;;;;;20.75;20.00;;;;;23.71;49.45;100990.88;5077578;28;45335;-44
2021/09/04 03:08:58;;;;;;;;;18.50;18.50;;;;;23.71;49.44;100983.81;5077083;28;46290;-44
2021/09/04 03:11:24;;;;;;;;;21.25;18.75;;;;;23.70;49.12;100989.22;5076961;28;45516;-44
2021/09/04 03:13:50;;;;;;;;;20.50;19.75;;;;;23.71;49.03;100989.09;5077244;27;45367;-47
2021/09/04 03:16:16;;;;;;;;;22.25;21.50;;;;;23.70;49.26;100987.41;5077369;27;45595;-44
2021/09/04 03:18:41;;;;;;;;;19.25;17.00;;;;;23.70;49.30;100982.09;5077150;27;45423;-44
2021/09/04 03:21:06;;;;;;;;;20.00;19.00;;;;;23.70;49.33;100976.81;5077011;28;45408;-45
2021/09/04 03:23:32;;;;;;;;;22.00;19.75;;;;;23.69;49.28;100975.13;5077041;28;45319;-47
2021/09/04 03:25:57;;;;;;;;;20.75;19.75;;;;;23.68;49.13;100973.41;5059011;28;45670;-47
2021/09/04 03:28:22;;;;;;;;;19.00;18.75;;;;;23.71;49.18;100985.59;5076774;28;45485;-51
2021/09/04 03:30:48;;;;;;;;;20.75;19.50;;;;;23.69;49.47;100971.63;5076833;28;45459;-45
2021/09/04 03:33:13;;;;;;;;;21.00;20.25;;;;;23.69;49.02;100975.13;5058641;28;45481;-43
2021/09/04 03:35:38;;;;;;;;;19.75;19.00;;;;;23.69;49.04;100980.41;5077372;28;45565;-45
2021/09/04 03:38:04;;;;;;;;;20.25;18.50;;;;;23.68;49.41;100972.59;5076595;28;46554;-44
2021/09/04 03:40:29;;;;;;;;;22.75;20.25;;;;;23.69;49.19;100984.88;5076640;28;45418;-47
2021/09/04 03:42:54;;;;;;;;;23.00;20.25;;;;;23.68;49.24;100978.72;5076820;28;45319;-43
2021/09/04 03:45:20;;;;;;;;;19.00;18.50;;;;;23.68;49.46;100984.00;5076672;27;45382;-43
2021/09/04 03:47:45;;;;;;;;;19.50;17.50;;;;;23.68;49.30;100981.34;5076536;28;46498;-43
2021/09/04 03:50:11;;;;;;;;;19.50;18.75;;;;;23.69;49.47;100982.22;5076824;28;45315;-44
2021/09/04 03:52:36;;;;;;;;;24.50;21.00;;;;;23.68;48.92;100976.06;5076551;28;45350;-44
2021/09/04 03:55:02;;;;;;;;;19.50;19.50;;;;;23.67;49.53;100977.00;5076611;28;45628;-44
2021/09/04 03:57:29;;;;;;;;;18.00;17.50;;;;;23.68;49.24;100973.41;5076452;28;46409;-43
2021/09/04 03:59:55;;;;;;;;;20.25;20.25;;;;;23.66;49.16;100970.00;5076350;28;45955;-43
2021/09/04 04:02:21;;;;;;;;;21.75;20.75;;;;;23.68;49.27;100981.34;5058420;28;45258;-43
2021/09/04 04:04:46;;;;;;;;;18.25;18.25;;;;;23.68;49.17;100977.88;5076780;28;45344;-43
2021/09/04 04:07:11;;;;;;;;;22.75;17.00;;;;;23.65;49.21;100968.31;5076607;27;46749;-43
2021/09/04 04:09:37;;;;;;;;;17.00;16.25;;;;;23.66;49.70;100967.38;5076270;28;45364;-43
2021/09/04 04:12:02;;;;;;;;;16.75;16.75;;;;;23.66;49.46;100962.06;5076472;28;45287;-43
2021/09/04 04:14:28;;;;;;;;;18.25;17.25;;;;;23.66;49.25;100964.72;5076559;28;45300;-43
2021/09/04 04:16:53;;;;;;;;;23.25;20.50;;;;;23.67;49.15;100966.41;5076236;28;46491;-44
2021/09/04 04:19:18;;;;;;;;;20.50;18.75;;;;;23.67;49.13;100961.13;5076229;28;45304;-45
2021/09/04 04:21:44;;;;;;;;;18.75;16.50;;;;;23.67;48.97;100963.78;5076537;28;45362;-46
2021/09/04 04:24:09;;;;;;;;;22.00;19.75;;;;;23.66;49.22;100958.59;5058458;28;45506;-43
2021/09/04 04:26:34;;;;;;;;;19.50;18.50;;;;;23.66;49.33;100956.78;5075991;28;45466;-44
2021/09/04 04:29:00;;;;;;;;;21.00;21.00;;;;;23.66;49.09;100964.72;5076056;28;45310;-44
2021/09/04 04:31:25;;;;;;;;;19.00;17.75;;;;;23.65;48.98;100960.38;5076176;28;45318;-44
2021/09/04 04:33:50;;;;;;;;;17.50;17.00;;;;;23.67;49.35;100966.41;5076452;28;45377;-44
2021/09/04 04:36:16;;;;;;;;;16.50;14.50;;;;;23.66;49.39;100961.25;5075952;28;46384;-44
2021/09/04 04:38:41;;;;;;;;;19.75;17.50;;;;;23.65;49.39;100963.03;5075942;28;45371;-44
2021/09/04 04:41:06;;;;;;;;;19.00;17.75;;;;;23.66;49.75;100962.06;5076050;28;45193;-46
2021/09/04 04:43:32;;;;;;;;;17.00;16.50;;;;;23.65;49.35;100963.03;5076112;28;45625;-44
2021/09/04 04:45:57;;;;;;;;;20.25;18.75;;;;;23.66;49.26;100966.53;5075967;28;45563;-44
2021/09/04 04:48:22;;;;;;;;;19.75;19.00;;;;;23.65;49.38;100968.31;5075947;28;45343;-44
2021/09/04 04:50:48;;;;;;;;;19.75;17.25;;;;;23.66;49.38;100953.31;5075777;28;45410;-43
2021/09/04 04:53:13;;;;;;;;;18.25;18.25;;;;;23.65;49.62;100963.03;5076458;28;45546;-43
2021/09/04 04:55:39;;;;;;;;;16.50;15.50;;;;;23.64;49.33;100964.00;5076358;28;47014;-44
2021/09/04 04:58:04;;;;;;;;;17.00;17.00;;;;;23.64;49.06;100964.00;5079172;28;45281;-45
2021/09/04 05:00:29;;;;;;;;;21.50;19.50;;;;;23.65;49.58;100968.31;5079271;28;45429;-47
2021/09/04 05:02:55;;;;;;;;;25.50;20.75;;;;;23.66;49.47;100969.19;5079476;27;45627;-46
2021/09/04 05:05:20;;;;;;;;;23.50;19.75;;;;;23.65;49.06;100968.31;5078963;28;45300;-42
2021/09/04 05:07:46;;;;;;;;;21.75;19.00;;;;;23.66;49.58;100977.97;5079464;28;45232;-44
2021/09/04 05:10:11;;;;;;;;;23.50;18.75;;;;;23.65;49.32;100970.13;5079363;28;45238;-44
2021/09/04 05:12:37;;;;;;;;;19.00;19.00;;;;;23.65;49.33;100978.91;5079298;27;45322;-43
2021/09/04 05:15:03;;;;;;;;;18.25;16.50;;;;;23.65;49.36;100978.06;5078944;28;45387;-43
2021/09/04 05:17:29;;;;;;;;;23.00;19.00;;;;;23.65;49.52;100975.41;5078830;28;46025;-45
2021/09/04 05:19:54;;;;;;;;;18.00;18.00;;;;;23.65;49.55;100978.91;5078969;28;45511;-45
2021/09/04 05:22:19;;;;;;;;;18.75;17.00;;;;;23.64;49.63;100979.88;5079213;28;45304;-48
2021/09/04 05:24:45;;;;;;;;;18.50;16.50;;;;;23.65;49.54;100984.19;5078770;28;49219;-44
2021/09/04 05:27:10;;;;;;;;;22.00;19.50;;;;;23.64;49.50;100977.22;5078638;27;45409;-53
2021/09/04 05:29:35;;;;;;;;;23.50;19.75;;;;;23.66;49.67;100979.78;5078988;28;45368;-53
2021/09/04 05:32:01;;;;;;;;;24.00;24.00;;;;;23.66;49.33;100983.25;5078884;27;45616;-48
2021/09/04 05:34:26;;;;;;;;;24.00;18.50;;;;;23.64;49.72;100977.22;5078640;27;45633;-46
2021/09/04 05:36:51;;;;;;;;;21.25;19.25;;;;;23.64;49.79;100982.53;5078617;27;45311;-44
2021/09/04 05:39:17;;;;;;;;;21.25;19.50;;;;;23.65;49.59;100984.19;5079046;28;45229;-44
2021/09/04 05:41:42;;;;;;;;;19.25;17.75;;;;;23.65;49.78;100978.91;5078828;28;45242;-44
2021/09/04 05:44:07;;;;;;;;;23.25;20.00;;;;;23.65;49.67;100986.00;5078440;28;47678;-45
2021/09/04 05:46:33;;;;;;;;;19.75;19.50;;;;;23.65;49.63;100984.19;5078542;27;45329;-44
2021/09/04 05:48:58;;;;;;;;;21.00;18.50;;;;;23.63;49.66;100984.31;5078570;27;45324;-44
2021/09/04 05:51:23;;;;;;;;;21.50;19.75;;;;;23.64;49.81;100987.81;5078560;28;45213;-45
2021/09/04 05:53:49;;;;;;;;;19.25;18.00;;;;;23.65;49.72;100989.50;5060342;28;46942;-48
2021/09/04 05:56:14;;;;;;;;;23.00;18.25;;;;;23.65;49.49;100988.66;5078384;28;45334;-47
2021/09/04 05:58:40;;;;;;;;;19.25;18.00;;;;;23.64;50.02;100995.75;5078204;28;45389;-46
2021/09/04 06:01:05;;;;;;;;;22.75;20.75;;;;;23.64;49.84;100993.13;5060401;28;45418;-44
2021/09/04 06:03:31;;;;;;;;;23.75;20.25;;;;;23.65;49.90;100994.78;5078190;28;46695;-44
2021/09/04 06:05:57;;;;;;;;;17.75;17.75;;;;;23.62;49.54;100995.84;5078276;28;45427;-45
2021/09/04 06:08:23;;;;;;;;;18.00;18.00;;;;;23.63;49.64;101000.19;5076807;28;45464;-47
2021/09/04 06:10:49;;;;;;;;;18.50;18.50;;;;;23.65;49.58;101004.53;5060345;28;45580;-44
2021/09/04 06:13:14;;;;;;;;;21.25;19.25;;;;;23.65;49.84;101009.81;5078008;28;45418;-45
2021/09/04 06:15:39;;;;;;;;;22.25;21.25;;;;;23.64;49.76;101001.06;5059821;28;45426;-50
2021/09/04 06:18:05;;;;;;;;;21.50;21.00;;;;;23.65;49.98;101009.81;5078087;27;45346;-49
2021/09/04 06:20:30;;;;;;;;;23.50;21.50;;;;;23.65;49.74;101015.94;5078208;27;45296;-46
2021/09/04 06:22:55;;;;;;;;;20.00;20.00;;;;;23.64;49.89;101019.56;5077891;28;45425;-47
2021/09/04 06:25:21;;;;;;;;;19.50;18.00;;;;;23.65;49.82;101012.47;5078053;27;45319;-50
2021/09/04 06:27:48;;;;;;;;;20.75;20.75;;;;;23.64;49.63;101014.28;5077988;27;45394;-47
2021/09/04 06:30:13;;;;;;;;;22.75;21.25;;;;;23.63;49.66;101010.75;5077900;27;45228;-51
2021/09/04 06:32:39;;;;;;;;;21.75;20.75;;;;;23.63;49.45;101010.75;5077510;28;45339;-48
2021/09/04 06:35:05;;;;;;;;;23.50;17.50;;;;;23.64;49.58;101016.94;5077518;28;45391;-47
2021/09/04 06:37:30;;;;;;;;;24.25;20.25;;;;;23.65;50.13;101009.81;5077864;28;45323;-46
2021/09/04 06:39:55;;;;;;;;;22.50;20.25;;;;;23.62;49.83;101014.34;5078017;28;45307;-46
2021/09/04 06:42:21;;;;;;;;;21.00;19.50;;;;;23.63;50.49;101017.88;5077702;28;45369;-47
2021/09/04 06:44:46;;;;;;;;;24.50;20.75;;;;;23.63;50.71;101017.88;5077605;27;45317;-46
2021/09/04 06:47:11;;;;;;;;;20.25;19.50;;;;;23.63;50.42;101021.34;5077660;27;45319;-52
2021/09/04 06:49:37;;;;;;;;;23.00;22.25;;;;;23.63;50.27;101021.34;5077606;27;45547;-45
2021/09/04 06:52:02;;;;;;;;;21.25;21.25;;;;;23.64;50.70;101024.88;5077230;27;46462;-45
2021/09/04 06:54:28;;;;;;;;;22.25;21.00;;;;;23.63;50.58;101024.00;5077248;27;45424;-50
2021/09/04 06:56:53;;;;;;;;;23.50;23.50;;;;;23.63;50.50;101017.88;5078060;28;45415;-47
2021/09/04 06:59:19;;;;;;;;;25.25;23.00;;;;;23.62;51.07;101019.66;5077868;28;45581;-45
2021/09/04 07:01:45;;;;;;;;;19.50;19.50;;;;;23.62;50.81;101017.00;5077167;28;45368;-47
2021/09/04 07:04:11;;;;;;;;;22.25;20.25;;;;;23.63;50.80;101012.59;5077015;27;45763;-43
2021/09/04 07:06:37;;;;;;;;;20.50;19.75;;;;;23.62;50.95;101011.72;5077318;28;45302;-47
2021/09/04 07:09:03;;;;;;;;;22.75;19.75;;;;;23.62;51.30;101017.00;5077404;28;45253;-43
2021/09/04 07:11:28;;;;;;;;;23.75;19.50;;;;;23.61;51.21;101012.66;5077017;28;46674;-47
2021/09/04 07:13:53;;;;;;;;;26.50;24.25;;;;;23.63;50.95;101015.22;5077311;28;47652;-43
2021/09/04 07:16:20;;;;;;;;;22.00;22.00;;;;;23.60;51.21;101012.78;5077147;27;45300;-47
2021/09/04 07:18:46;;;;;;;;;20.50;20.00;;;;;23.63;51.36;101015.22;5076510;27;45596;-50
2021/09/04 07:21:11;;;;;;;;;24.50;21.50;;;;;23.62;51.39;101017.00;5058977;28;46576;-49
2021/09/04 07:23:36;;;;;;;;;25.00;22.25;;;;;23.63;51.49;101013.41;5077159;27;45443;-51
2021/09/04 07:26:02;;;;;;;;;21.00;20.75;;;;;23.66;51.50;101016.81;5077094;28;45371;-55
2021/09/04 07:28:27;;;;;;;;;25.25;22.75;;;;;23.64;51.78;101014.28;5077226;28;45512;-46
2021/09/04 07:30:53;;;;;;;;;23.00;23.00;;;;;23.65;51.58;101015.94;5076594;28;56172;-46
2021/09/04 07:33:19;;;;;;;;;26.25;23.75;;;;;23.66;51.66;101016.81;5076637;28;45257;-47
2021/09/04 07:35:44;;;;;;;;;23.25;23.25;;;;;23.65;51.92;101021.25;5077080;28;45459;-46
2021/09/04 07:38:09;;;;;;;;;23.50;21.75;;;;;23.66;51.93;101022.94;5058875;28;45329;-46
2021/09/04 07:40:35;;;;;;;;;29.50;28.50;;;;;23.66;51.71;101028.22;5076567;27;45360;-45
2021/09/04 07:43:02;;;;;;;;;27.00;24.25;;;;;23.69;52.03;101028.03;5076686;28;45367;-46
2021/09/04 07:45:28;;;;;;;;;25.50;17.50;;;;;23.70;51.92;101024.44;5076712;28;45324;-44
2021/09/04 07:47:53;;;;;;;;;29.75;27.25;;;;;23.71;51.96;101026.16;5077180;28;45450;-47
2021/09/04 07:50:19;;;;;;;;;25.00;22.50;;;;;23.72;52.18;101025.19;5076375;28;45318;-44
2021/09/04 07:52:44;;;;;;;;;24.75;22.50;;;;;23.72;51.82;101027.84;5076464;28;45390;-44
2021/09/04 07:55:10;;;;;;;;;32.75;23.75;;;;;23.72;51.83;101022.56;5076712;28;45406;-44
2021/09/04 07:57:36;;;;;;;;;24.50;23.50;;;;;23.73;52.24;101023.38;5076832;28;45596;-43
2021/09/04 08:00:01;;;;;;;;;21.75;21.75;;;;;23.73;52.34;101018.97;5057340;28;46996;-44
2021/09/04 08:02:27;;;;;;;;;29.25;24.25;;;;;23.73;52.25;101029.53;5076291;28;45403;-43
2021/09/04 08:04:52;;;;;;;;;26.00;24.25;;;;;23.74;52.33;101028.59;5076794;28;45430;-42
2021/09/04 08:07:17;;;;;;;;;32.25;26.25;;;;;23.75;53.22;101032.94;5076565;28;45591;-42
2021/09/04 08:09:43;;;;;;;;;32.00;29.00;;;;;23.74;52.65;101033.88;5057988;28;47003;-43
2021/09/04 08:12:08;;;;;;;;;29.00;26.00;;;;;23.74;53.21;101033.88;5076171;28;45461;-43
2021/09/04 08:14:33;;;;;;;;;25.50;25.50;;;;;23.75;53.60;101027.66;5076445;28;45315;-43
2021/09/04 08:16:59;;;;;;;;;26.50;26.50;;;;;23.71;53.72;101028.78;5076560;28;45374;-43
2021/09/04 08:19:24;;;;;;;;;21.50;21.50;;;;;23.74;53.56;101025.94;5076386;28;46132;-45
2021/09/04 08:21:50;;;;;;;;;26.25;23.75;;;;;23.74;53.34;101031.25;5057757;28;45377;-42
2021/09/04 08:24:15;;;;;;;;;28.75;25.00;;;;;23.75;53.35;101029.44;5076237;28;45327;-42
2021/09/04 08:26:42;;;;;;;;;22.50;22.50;;;;;23.77;53.32;101031.00;5076347;28;45310;-43
2021/09/04 08:29:08;;;;;;;;;25.75;24.75;;;;;23.78;52.87;101032.72;5075918;27;45241;-42
2021/09/04 08:31:33;;;;;;;;;27.00;25.75;;;;;23.80;52.92;101034.41;5077983;27;45237;-43
2021/09/04 08:33:58;;;;;;;;;23.00;20.50;;;;;23.80;53.54;101034.41;5079936;28;45283;-43
2021/09/04 08:36:24;;;;;;;;;25.50;22.50;;;;;23.82;53.47;101043.09;5080260;27;45229;-42
2021/09/04 08:38:49;;;;;;;;;26.50;23.75;;;;;23.83;53.53;101047.47;5079670;28;45465;-42
2021/09/04 08:41:16;;;;;;;;;26.75;22.00;;;;;23.83;53.01;101050.09;5079565;28;45288;-43
2021/09/04 08:43:41;;;;;;;;;26.75;25.50;;;;;23.84;53.35;101046.50;5079699;27;45317;-42
2021/09/04 08:46:07;;;;;;;;;24.25;21.50;;;;;23.85;53.16;101042.91;5079620;27;45428;-42
2021/09/04 08:48:33;;;;;;;;;24.50;22.25;;;;;23.86;53.35;101052.56;5061020;28;46655;-42
2021/09/04 08:50:58;;;;;;;;;17.25;16.50;;;;;23.86;53.50;101061.31;5079567;27;45452;-43
2021/09/04 08:53:26;;;;;;;;;22.00;20.25;;;;;23.90;53.19;101061.97;5079571;28;45690;-42
2021/09/04 08:55:51;;;;;;;;;24.50;23.25;;;;;23.91;53.38;101053.94;5079594;28;45432;-43
2021/09/04 08:58:17;;;;;;;;;25.50;22.00;;;;;23.92;53.95;101060.06;5079100;28;45680;-43
2021/09/04 09:00:43;;;;;;;;;30.25;24.25;;;;;23.92;53.85;101066.19;5078971;28;45239;-45
2021/09/04 09:03:29;;;;;;;;;21.50;21.50;;;;;23.88;53.87;101054.13;5079324;28;45273;-43
2021/09/04 09:05:55;;;;;;;;;32.75;26.25;;;;;23.92;54.24;101060.91;5079291;27;45272;-42
2021/09/04 09:08:25;;;;;;;;;27.00;26.75;;;;;23.93;54.35;101057.31;5078863;28;46119;-42
2021/09/04 09:10:52;;;;;;;;;27.75;26.00;;;;;23.93;53.98;101059.97;5079003;27;45889;-42
2021/09/04 09:13:21;;;;;;;;;28.75;26.25;;;;;23.95;54.59;101070.50;5078992;28;45229;-43
2021/09/04 09:15:50;;;;;;;;;25.25;24.75;;;;;23.95;53.93;101070.50;5079288;27;45577;-44
2021/09/04 09:18:17;;;;;;;;;29.75;24.75;;;;;23.96;54.07;101066.03;5078797;28;45367;-44
2021/09/04 09:20:56;;;;;;;;;26.25;25.00;;;;;23.96;54.09;101068.69;5078869;28;45827;-42
2021/09/04 09:23:22;;;;;;;;;24.75;23.50;;;;;23.95;54.23;101062.56;5079020;28;45279;-42
2021/09/04 09:25:48;;;;;;;;;24.25;20.00;;;;;23.92;54.05;101068.84;5079123;28;45354;-42
2021/09/04 09:28:24;;;;;;;;;25.50;22.25;;;;;23.95;54.08;101075.78;5078726;28;46621;-44
2021/09/04 09:30:57;;;;;;;;;28.75;25.75;;;;;23.95;54.36;101070.50;5078672;28;45339;-42
2021/09/04 09:33:25;;;;;;;;;27.25;22.50;;;;;23.95;54.53;101075.78;5078966;28;45396;-42
2021/09/04 09:35:53;;;;;;;;;21.25;19.00;;;;;23.96;54.42;101071.34;5079020;27;45366;-42
2021/09/04 09:38:21;;;;;;;;;20.50;19.25;;;;;23.96;54.15;101074.84;5078502;28;46696;-43
2021/09/04 09:40:47;;;;;;;;;24.00;23.00;;;;;23.97;54.50;101073.91;5060506;28;45304;-43
2021/09/04 09:43:29;;;;;;;;;20.25;19.50;;;;;23.98;54.63;101072.91;5078384;27;45358;-43
2021/09/04 09:46:00;;;;;;;;;21.25;21.25;;;;;24.00;54.33;101078.13;5078791;28;45355;-43
2021/09/04 09:48:31;;;;;;;;;20.75;20.50;;;;;24.01;54.44;101070.06;5078456;28;45421;-43
2021/09/04 09:50:58;;;;;;;;;19.00;18.00;;;;;24.02;54.40;101074.44;5078417;28;45770;-42
2021/09/04 09:53:24;;;;;;;;;20.00;19.00;;;;;24.03;54.35;101064.69;5078508;28;45398;-43
2021/09/04 09:55:52;;;;;;;;;27.25;21.75;;;;;24.05;54.47;101065.41;5043684;28;45624;-43
2021/09/04 09:58:19;;;;;;;;;23.25;20.25;;;;;24.05;54.79;101061.00;5078229;27;46620;-43
2021/09/04 10:00:46;;;;;;;;;20.50;19.75;;;;;24.06;54.98;101060.03;5078141;28;45753;-43
2021/09/04 10:03:12;;;;;;;;;22.00;19.25;;;;;24.07;54.38;101064.41;5078335;27;45241;-44
2021/09/04 10:05:38;;;;;;;;;22.50;21.00;;;;;24.08;54.33;101063.44;5078398;28;45276;-42
2021/09/04 10:08:04;;;;;;;;;19.00;19.00;;;;;24.08;54.42;101055.50;5043173;28;46996;-45
2021/09/04 10:10:33;;;;;;;;;25.25;21.75;;;;;24.09;54.55;101057.16;5078113;28;45933;-46
2021/09/04 10:12:59;;;;;;;;;20.75;19.25;;;;;24.09;54.95;101062.47;5078683;28;45341;-43
2021/09/04 10:15:29;;;;;;;;;25.25;23.50;;;;;24.09;55.09;101054.53;5078328;28;45204;-43
2021/09/04 10:17:56;;;;;;;;;20.25;20.25;;;;;24.12;54.97;101052.63;5077939;27;45397;-42
2021/09/04 10:20:24;;;;;;;;;24.25;22.00;;;;;24.12;54.43;101053.50;5059570;28;45876;-42
2021/09/04 10:22:53;;;;;;;;;24.00;21.50;;;;;24.13;54.56;101052.53;5077991;28;45491;-43
2021/09/04 10:25:19;;;;;;;;;22.25;21.50;;;;;24.15;54.16;101055.06;5078076;28;45536;-43
2021/09/04 10:27:48;;;;;;;;;25.25;22.50;;;;;24.18;54.42;101046.94;5077551;28;46543;-46
2021/09/04 10:30:33;;;;;;;;;21.75;21.00;;;;;24.20;54.71;101047.66;5077861;28;45182;-43
2021/09/04 10:33:19;;;;;;;;;11.25;10.00;;;;;24.21;54.31;101050.22;5077932;28;45240;-43
2021/09/04 10:35:57;;;;;;;;;21.00;18.25;;;;;24.24;54.26;101054.44;5059848;28;45255;-42
2021/09/04 10:38:26;;;;;;;;;21.50;17.50;;;;;24.25;54.72;101050.84;5077538;27;45472;-42
2021/09/04 10:41:11;;;;;;;;;22.00;19.00;;;;;24.30;54.02;101056.69;5077549;27;45912;-42
2021/09/04 10:43:41;;;;;;;;;19.50;17.25;;;;;24.31;54.38;101055.72;5077819;28;45449;-42
2021/09/04 10:46:06;;;;;;;;;21.00;20.00;;;;;24.31;54.15;101054.88;5077952;28;45254;-42
2021/09/04 10:48:37;;;;;;;;;23.00;21.00;;;;;24.32;53.75;101049.47;5077735;28;45362;-43
2021/09/04 10:51:04;;;;;;;;;19.00;17.00;;;;;24.33;54.08;101042.38;5077566;27;45372;-42
2021/09/04 10:53:49;;;;;;;;;21.50;19.25;;;;;24.34;53.69;101052.03;5077153;28;45439;-44
2021/09/04 10:56:20;;;;;;;;;19.50;17.75;;;;;24.33;53.69;101051.16;5077657;28;45386;-43
2021/09/04 10:58:46;;;;;;;;;15.75;15.75;;;;;24.35;53.97;101056.38;5076341;28;46586;-49
2021/09/04 11:01:25;;;;;;;;;21.00;18.75;;;;;24.33;53.61;101048.50;5077337;28;45384;-47
2021/09/04 11:03:54;;;;;;;;;15.25;15.00;;;;;24.35;53.82;101051.09;5077647;28;45795;-44
2021/09/04 11:06:25;;;;;;;;;22.25;17.50;;;;;24.33;53.24;101043.22;5077603;27;45303;-42